Terminal Aerodrome Forecast
Issued by NWS

Home | Current Version | Previous Version | Text Only | Print | Product List | Glossary On
Versions: 1 2 3 4 5 6 7 8 9 10 11 12 13 14 15 16 17 18
000
FTUS46 KOTX 101141
TAFMWH
TAF
KMWH 101141Z 1012/1112 32006KT 2SM -SN BR SCT010 OVC030
     FM101300 32005KT 2SM BR BKN030
     FM101900 20003KT 4SM BR BKN007
     FM110000 11004KT 5SM -SN SCT007 BKN015 OVC040=

USA.gov is the U.S. government's official web portal to all federal, state and local government web resources and services.